sensor_id;sensor_type;location;lat;lon;timestamp;P1;durP1;ratioP1;P2;durP2;ratioP2
69573;SDS011;62840;52.366;5.980;2023-03-14T00:00:21;8.00;;;2.15;;
69573;SDS011;62840;52.366;5.980;2023-03-14T00:03:11;7.23;;;1.70;;
69573;SDS011;62840;52.366;5.980;2023-03-14T00:05:48;8.88;;;2.22;;
69573;SDS011;62840;52.366;5.980;2023-03-14T00:08:45;10.77;;;2.22;;
69573;SDS011;62840;52.366;5.980;2023-03-14T00:11:41;7.85;;;1.80;;
69573;SDS011;62840;52.366;5.980;2023-03-14T00:14:21;9.68;;;2.40;;
69573;SDS011;62840;52.366;5.980;2023-03-14T00:16:54;10.27;;;2.20;;
69573;SDS011;62840;52.366;5.980;2023-03-14T00:19:29;9.90;;;2.30;;
69573;SDS011;62840;52.366;5.980;2023-03-14T00:22:21;9.48;;;3.08;;
69573;SDS011;62840;52.366;5.980;2023-03-14T00:24:57;7.82;;;2.80;;
69573;SDS011;62840;52.366;5.980;2023-03-14T00:27:29;8.18;;;2.45;;
69573;SDS011;62840;52.366;5.980;2023-03-14T00:30:10;10.10;;;2.80;;
69573;SDS011;62840;52.366;5.980;2023-03-14T00:32:37;7.85;;;2.35;;
69573;SDS011;62840;52.366;5.980;2023-03-14T00:35:32;8.60;;;2.80;;
69573;SDS011;62840;52.366;5.980;2023-03-14T00:41:21;8.82;;;2.67;;
69573;SDS011;62840;52.366;5.980;2023-03-14T00:44:05;10.10;;;2.57;;
69573;SDS011;62840;52.366;5.980;2023-03-14T00:46:48;6.40;;;2.25;;
69573;SDS011;62840;52.366;5.980;2023-03-14T00:49:28;7.30;;;2.40;;
69573;SDS011;62840;52.366;5.980;2023-03-14T00:52:01;6.45;;;2.38;;
69573;SDS011;62840;52.366;5.980;2023-03-14T00:54:55;12.95;;;2.97;;
69573;SDS011;62840;52.366;5.980;2023-03-14T00:57:39;8.57;;;2.50;;
69573;SDS011;62840;52.366;5.980;2023-03-14T01:00:14;11.77;;;3.03;;
69573;SDS011;62840;52.366;5.980;2023-03-14T01:02:55;7.10;;;2.60;;
69573;SDS011;62840;52.366;5.980;2023-03-14T01:05:24;10.48;;;3.30;;
69573;SDS011;62840;52.366;5.980;2023-03-14T01:08:07;8.13;;;2.92;;
69573;SDS011;62840;52.366;5.980;2023-03-14T01:11:05;7.30;;;2.67;;
69573;SDS011;62840;52.366;5.980;2023-03-14T01:13:41;7.47;;;2.72;;
69573;SDS011;62840;52.366;5.980;2023-03-14T01:16:35;9.23;;;2.85;;
69573;SDS011;62840;52.366;5.980;2023-03-14T01:19:20;8.85;;;2.65;;
69573;SDS011;62840;52.366;5.980;2023-03-14T01:21:48;8.95;;;2.75;;
69573;SDS011;62840;52.366;5.980;2023-03-14T01:24:28;8.87;;;2.43;;
69573;SDS011;62840;52.366;5.980;2023-03-14T01:27:03;7.85;;;2.55;;
69573;SDS011;62840;52.366;5.980;2023-03-14T01:29:43;11.68;;;2.47;;
69573;SDS011;62840;52.366;5.980;2023-03-14T01:32:30;6.20;;;1.80;;
69573;SDS011;62840;52.366;5.980;2023-03-14T01:35:23;8.13;;;1.77;;
69573;SDS011;62840;52.366;5.980;2023-03-14T01:37:51;7.13;;;1.57;;
69573;SDS011;62840;52.366;5.980;2023-03-14T01:40:46;7.15;;;1.60;;
69573;SDS011;62840;52.366;5.980;2023-03-14T01:43:19;7.88;;;2.33;;
69573;SDS011;62840;52.366;5.980;2023-03-14T01:52:07;7.67;;;1.60;;
69573;SDS011;62840;52.366;5.980;2023-03-14T01:54:49;5.70;;;1.50;;
69573;SDS011;62840;52.366;5.980;2023-03-14T01:57:46;6.50;;;1.73;;
69573;SDS011;62840;52.366;5.980;2023-03-14T02:00:48;7.20;;;1.50;;
69573;SDS011;62840;52.366;5.980;2023-03-14T02:03:24;6.53;;;2.10;;
69573;SDS011;62840;52.366;5.980;2023-03-14T02:06:04;5.27;;;1.70;;
69573;SDS011;62840;52.366;5.980;2023-03-14T02:08:43;5.38;;;1.27;;
69573;SDS011;62840;52.366;5.980;2023-03-14T02:12:07;7.55;;;1.38;;
69573;SDS011;62840;52.366;5.980;2023-03-14T02:15:06;5.40;;;1.30;;
69573;SDS011;62840;52.366;5.980;2023-03-14T02:17:39;6.53;;;1.42;;
69573;SDS011;62840;52.366;5.980;2023-03-14T02:20:34;4.53;;;1.20;;
69573;SDS011;62840;52.366;5.980;2023-03-14T02:23:20;3.97;;;1.23;;
69573;SDS011;62840;52.366;5.980;2023-03-14T02:26:20;6.57;;;1.30;;
69573;SDS011;62840;52.366;5.980;2023-03-14T02:29:33;5.10;;;1.00;;
69573;SDS011;62840;52.366;5.980;2023-03-14T02:35:06;8.30;;;1.60;;
69573;SDS011;62840;52.366;5.980;2023-03-14T02:37:44;5.80;;;1.30;;
69573;SDS011;62840;52.366;5.980;2023-03-14T02:40:17;5.38;;;1.42;;
69573;SDS011;62840;52.366;5.980;2023-03-14T02:43:07;6.55;;;1.17;;
69573;SDS011;62840;52.366;5.980;2023-03-14T02:46:01;5.45;;;1.40;;
69573;SDS011;62840;52.366;5.980;2023-03-14T02:48:39;5.97;;;1.30;;
69573;SDS011;62840;52.366;5.980;2023-03-14T02:51:21;4.63;;;1.00;;
69573;SDS011;62840;52.366;5.980;2023-03-14T02:54:04;5.85;;;1.40;;
69573;SDS011;62840;52.366;5.980;2023-03-14T02:56:41;7.15;;;1.48;;
69573;SDS011;62840;52.366;5.980;2023-03-14T02:59:17;4.28;;;1.30;;
69573;SDS011;62840;52.366;5.980;2023-03-14T03:01:56;5.40;;;1.40;;
69573;SDS011;62840;52.366;5.980;2023-03-14T03:04:27;7.20;;;1.55;;
69573;SDS011;62840;52.366;5.980;2023-03-14T03:07:00;7.57;;;1.50;;
69573;SDS011;62840;52.366;5.980;2023-03-14T03:09:46;5.68;;;1.20;;
69573;SDS011;62840;52.366;5.980;2023-03-14T03:12:22;5.70;;;1.50;;
69573;SDS011;62840;52.366;5.980;2023-03-14T03:15:03;4.13;;;1.20;;
69573;SDS011;62840;52.366;5.980;2023-03-14T03:23:16;9.25;;;1.88;;
69573;SDS011;62840;52.366;5.980;2023-03-14T03:26:17;4.82;;;1.83;;
69573;SDS011;62840;52.366;5.980;2023-03-14T03:28:54;9.97;;;1.70;;
69573;SDS011;62840;52.366;5.980;2023-03-14T03:31:49;5.00;;;1.80;;
69573;SDS011;62840;52.366;5.980;2023-03-14T03:34:49;5.03;;;1.83;;
69573;SDS011;62840;52.366;5.980;2023-03-14T03:37:26;5.78;;;1.90;;
69573;SDS011;62840;52.366;5.980;2023-03-14T03:40:00;5.80;;;1.83;;
69573;SDS011;62840;52.366;5.980;2023-03-14T03:42:43;5.43;;;1.67;;
69573;SDS011;62840;52.366;5.980;2023-03-14T03:45:18;5.30;;;1.75;;
69573;SDS011;62840;52.366;5.980;2023-03-14T03:48:02;5.70;;;1.80;;
69573;SDS011;62840;52.366;5.980;2023-03-14T03:51:10;6.10;;;1.80;;
69573;SDS011;62840;52.366;5.980;2023-03-14T03:53:43;5.45;;;1.90;;
69573;SDS011;62840;52.366;5.980;2023-03-14T03:56:13;6.23;;;1.83;;
69573;SDS011;62840;52.366;5.980;2023-03-14T03:58:59;6.13;;;1.92;;
69573;SDS011;62840;52.366;5.980;2023-03-14T04:01:45;5.63;;;2.08;;
69573;SDS011;62840;52.366;5.980;2023-03-14T04:04:24;6.35;;;1.58;;
69573;SDS011;62840;52.366;5.980;2023-03-14T04:07:04;7.22;;;1.75;;
69573;SDS011;62840;52.366;5.980;2023-03-14T04:09:48;6.27;;;1.40;;
69573;SDS011;62840;52.366;5.980;2023-03-14T04:12:32;6.53;;;1.80;;
69573;SDS011;62840;52.366;5.980;2023-03-14T04:15:07;6.25;;;2.00;;
69573;SDS011;62840;52.366;5.980;2023-03-14T04:17:47;6.63;;;1.77;;
69573;SDS011;62840;52.366;5.980;2023-03-14T04:20:33;5.95;;;1.60;;
69573;SDS011;62840;52.366;5.980;2023-03-14T04:23:21;5.77;;;1.60;;
69573;SDS011;62840;52.366;5.980;2023-03-14T04:25:54;5.90;;;1.77;;
69573;SDS011;62840;52.366;5.980;2023-03-14T04:28:49;8.90;;;1.55;;
69573;SDS011;62840;52.366;5.980;2023-03-14T04:31:24;6.38;;;1.73;;
69573;SDS011;62840;52.366;5.980;2023-03-14T04:33:56;6.32;;;1.65;;
69573;SDS011;62840;52.366;5.980;2023-03-14T04:36:32;6.03;;;1.30;;
69573;SDS011;62840;52.366;5.980;2023-03-14T04:39:14;7.85;;;1.38;;
69573;SDS011;62840;52.366;5.980;2023-03-14T04:42:00;5.85;;;2.00;;
69573;SDS011;62840;52.366;5.980;2023-03-14T04:44:38;5.93;;;1.48;;
69573;SDS011;62840;52.366;5.980;2023-03-14T04:47:22;7.85;;;1.40;;
69573;SDS011;62840;52.366;5.980;2023-03-14T04:50:27;6.40;;;1.37;;
69573;SDS011;62840;52.366;5.980;2023-03-14T04:53:15;7.53;;;1.40;;
69573;SDS011;62840;52.366;5.980;2023-03-14T04:58:56;4.50;;;1.40;;
69573;SDS011;62840;52.366;5.980;2023-03-14T05:02:09;3.78;;;1.40;;
69573;SDS011;62840;52.366;5.980;2023-03-14T05:04:43;5.67;;;1.13;;
69573;SDS011;62840;52.366;5.980;2023-03-14T05:07:16;6.38;;;1.10;;
69573;SDS011;62840;52.366;5.980;2023-03-14T05:09:48;5.68;;;1.40;;
69573;SDS011;62840;52.366;5.980;2023-03-14T05:12:26;7.20;;;1.15;;
69573;SDS011;62840;52.366;5.980;2023-03-14T05:15:22;5.25;;;1.15;;
69573;SDS011;62840;52.366;5.980;2023-03-14T05:18:00;5.23;;;1.20;;
69573;SDS011;62840;52.366;5.980;2023-03-14T05:20:42;8.27;;;1.50;;
69573;SDS011;62840;52.366;5.980;2023-03-14T05:23:10;5.82;;;1.50;;
69573;SDS011;62840;52.366;5.980;2023-03-14T05:25:51;4.15;;;1.60;;
69573;SDS011;62840;52.366;5.980;2023-03-14T05:29:03;8.40;;;1.77;;
69573;SDS011;62840;52.366;5.980;2023-03-14T05:31:46;5.83;;;1.30;;
69573;SDS011;62840;52.366;5.980;2023-03-14T05:34:29;6.95;;;1.50;;
69573;SDS011;62840;52.366;5.980;2023-03-14T05:40:07;7.43;;;1.90;;
69573;SDS011;62840;52.366;5.980;2023-03-14T05:42:40;7.25;;;1.80;;
69573;SDS011;62840;52.366;5.980;2023-03-14T05:45:15;7.53;;;1.90;;
69573;SDS011;62840;52.366;5.980;2023-03-14T05:47:58;5.50;;;2.00;;
69573;SDS011;62840;52.366;5.980;2023-03-14T05:50:42;7.32;;;1.83;;
69573;SDS011;62840;52.366;5.980;2023-03-14T05:53:26;5.95;;;1.50;;
69573;SDS011;62840;52.366;5.980;2023-03-14T05:55:57;8.02;;;2.13;;
69573;SDS011;62840;52.366;5.980;2023-03-14T05:58:28;4.03;;;1.50;;
69573;SDS011;62840;52.366;5.980;2023-03-14T06:01:16;7.90;;;1.83;;
69573;SDS011;62840;52.366;5.980;2023-03-14T06:03:55;5.20;;;1.70;;
69573;SDS011;62840;52.366;5.980;2023-03-14T06:06:39;5.63;;;1.60;;
69573;SDS011;62840;52.366;5.980;2023-03-14T06:09:14;4.95;;;1.88;;
69573;SDS011;62840;52.366;5.980;2023-03-14T06:11:53;4.73;;;1.57;;
69573;SDS011;62840;52.366;5.980;2023-03-14T06:14:31;7.03;;;2.03;;
69573;SDS011;62840;52.366;5.980;2023-03-14T06:17:07;4.20;;;1.77;;
69573;SDS011;62840;52.366;5.980;2023-03-14T06:19:39;7.78;;;2.00;;
69573;SDS011;62840;52.366;5.980;2023-03-14T06:22:18;5.95;;;2.10;;
69573;SDS011;62840;52.366;5.980;2023-03-14T06:24:57;6.27;;;1.80;;
69573;SDS011;62840;52.366;5.980;2023-03-14T06:27:43;4.97;;;1.90;;
69573;SDS011;62840;52.366;5.980;2023-03-14T06:30:28;6.20;;;2.30;;
69573;SDS011;62840;52.366;5.980;2023-03-14T06:33:06;5.70;;;1.55;;
69573;SDS011;62840;52.366;5.980;2023-03-14T06:35:55;5.18;;;2.00;;
69573;SDS011;62840;52.366;5.980;2023-03-14T06:38:33;6.27;;;1.70;;
69573;SDS011;62840;52.366;5.980;2023-03-14T06:41:13;4.85;;;1.60;;
69573;SDS011;62840;52.366;5.980;2023-03-14T06:43:58;6.15;;;2.15;;
69573;SDS011;62840;52.366;5.980;2023-03-14T06:46:34;7.72;;;1.73;;
69573;SDS011;62840;52.366;5.980;2023-03-14T06:49:08;5.47;;;1.67;;
69573;SDS011;62840;52.366;5.980;2023-03-14T06:52:05;4.83;;;1.50;;
69573;SDS011;62840;52.366;5.980;2023-03-14T06:54:47;4.97;;;1.58;;
69573;SDS011;62840;52.366;5.980;2023-03-14T06:57:18;5.38;;;2.03;;
69573;SDS011;62840;52.366;5.980;2023-03-14T06:59:54;5.82;;;2.08;;
69573;SDS011;62840;52.366;5.980;2023-03-14T07:02:33;6.28;;;2.20;;
69573;SDS011;62840;52.366;5.980;2023-03-14T07:05:28;7.50;;;2.07;;
69573;SDS011;62840;52.366;5.980;2023-03-14T07:08:11;6.95;;;1.83;;
69573;SDS011;62840;52.366;5.980;2023-03-14T07:10:41;4.25;;;1.40;;
69573;SDS011;62840;52.366;5.980;2023-03-14T07:13:14;3.25;;;0.90;;
69573;SDS011;62840;52.366;5.980;2023-03-14T07:15:58;3.22;;;0.80;;
69573;SDS011;62840;52.366;5.980;2023-03-14T07:18:54;3.67;;;0.60;;
69573;SDS011;62840;52.366;5.980;2023-03-14T07:21:30;1.75;;;0.50;;
69573;SDS011;62840;52.366;5.980;2023-03-14T07:24:03;2.15;;;0.68;;
69573;SDS011;62840;52.366;5.980;2023-03-14T07:26:52;4.20;;;0.50;;
69573;SDS011;62840;52.366;5.980;2023-03-14T07:29:27;4.07;;;0.70;;
69573;SDS011;62840;52.366;5.980;2023-03-14T07:35:32;3.03;;;0.40;;
69573;SDS011;62840;52.366;5.980;2023-03-14T07:38:11;2.50;;;0.63;;
69573;SDS011;62840;52.366;5.980;2023-03-14T07:40:47;2.00;;;0.50;;
69573;SDS011;62840;52.366;5.980;2023-03-14T07:43:43;3.38;;;0.70;;
69573;SDS011;62840;52.366;5.980;2023-03-14T07:46:19;2.20;;;0.60;;
69573;SDS011;62840;52.366;5.980;2023-03-14T07:48:52;3.67;;;0.60;;
69573;SDS011;62840;52.366;5.980;2023-03-14T07:51:33;4.05;;;0.73;;
69573;SDS011;62840;52.366;5.980;2023-03-14T07:54:32;4.18;;;0.95;;
69573;SDS011;62840;52.366;5.980;2023-03-14T07:57:21;2.47;;;0.70;;
69573;SDS011;62840;52.366;5.980;2023-03-14T07:59:58;3.10;;;0.40;;
69573;SDS011;62840;52.366;5.980;2023-03-14T08:05:29;3.60;;;0.80;;
69573;SDS011;62840;52.366;5.980;2023-03-14T08:08:50;3.17;;;0.70;;
69573;SDS011;62840;52.366;5.980;2023-03-14T08:14:27;4.27;;;0.60;;
69573;SDS011;62840;52.366;5.980;2023-03-14T08:17:07;3.47;;;0.63;;
69573;SDS011;62840;52.366;5.980;2023-03-14T08:19:48;3.42;;;0.70;;
69573;SDS011;62840;52.366;5.980;2023-03-14T08:22:37;3.03;;;0.60;;
69573;SDS011;62840;52.366;5.980;2023-03-14T08:25:13;3.15;;;0.65;;
69573;SDS011;62840;52.366;5.980;2023-03-14T08:30:46;4.65;;;0.60;;
69573;SDS011;62840;52.366;5.980;2023-03-14T08:33:21;5.88;;;1.10;;
69573;SDS011;62840;52.366;5.980;2023-03-14T08:36:01;3.72;;;0.68;;
69573;SDS011;62840;52.366;5.980;2023-03-14T08:38:46;3.38;;;0.60;;
69573;SDS011;62840;52.366;5.980;2023-03-14T08:41:34;3.20;;;0.50;;
69573;SDS011;62840;52.366;5.980;2023-03-14T08:44:10;2.17;;;0.43;;
69573;SDS011;62840;52.366;5.980;2023-03-14T08:46:43;2.78;;;0.60;;
69573;SDS011;62840;52.366;5.980;2023-03-14T08:49:32;3.30;;;0.50;;
69573;SDS011;62840;52.366;5.980;2023-03-14T08:52:25;2.90;;;0.80;;
69573;SDS011;62840;52.366;5.980;2023-03-14T08:55:24;3.90;;;0.53;;
69573;SDS011;62840;52.366;5.980;2023-03-14T08:57:55;3.17;;;0.47;;
69573;SDS011;62840;52.366;5.980;2023-03-14T09:00:50;3.38;;;0.50;;
69573;SDS011;62840;52.366;5.980;2023-03-14T09:03:26;2.25;;;0.50;;
69573;SDS011;62840;52.366;5.980;2023-03-14T09:06:03;2.42;;;0.50;;
69573;SDS011;62840;52.366;5.980;2023-03-14T09:09:27;2.67;;;0.63;;
69573;SDS011;62840;52.366;5.980;2023-03-14T09:15:08;2.40;;;0.40;;
69573;SDS011;62840;52.366;5.980;2023-03-14T09:18:10;2.60;;;0.50;;
69573;SDS011;62840;52.366;5.980;2023-03-14T09:20:44;1.77;;;0.47;;
69573;SDS011;62840;52.366;5.980;2023-03-14T09:23:22;2.57;;;0.57;;
69573;SDS011;62840;52.366;5.980;2023-03-14T09:25:57;3.42;;;0.65;;
69573;SDS011;62840;52.366;5.980;2023-03-14T09:28:34;2.97;;;0.52;;
69573;SDS011;62840;52.366;5.980;2023-03-14T09:31:06;3.72;;;0.50;;
69573;SDS011;62840;52.366;5.980;2023-03-14T09:34:03;2.97;;;0.50;;
69573;SDS011;62840;52.366;5.980;2023-03-14T09:36:40;4.03;;;0.70;;
69573;SDS011;62840;52.366;5.980;2023-03-14T09:39:34;5.13;;;0.88;;
69573;SDS011;62840;52.366;5.980;2023-03-14T09:42:20;5.38;;;0.80;;
69573;SDS011;62840;52.366;5.980;2023-03-14T09:45:09;3.70;;;0.60;;
69573;SDS011;62840;52.366;5.980;2023-03-14T09:48:00;3.20;;;0.68;;
69573;SDS011;62840;52.366;5.980;2023-03-14T09:54:17;5.78;;;0.73;;
69573;SDS011;62840;52.366;5.980;2023-03-14T09:57:02;3.40;;;0.77;;
69573;SDS011;62840;52.366;5.980;2023-03-14T09:59:37;5.72;;;0.70;;
69573;SDS011;62840;52.366;5.980;2023-03-14T10:02:32;7.13;;;1.23;;
69573;SDS011;62840;52.366;5.980;2023-03-14T10:05:14;6.53;;;0.77;;
69573;SDS011;62840;52.366;5.980;2023-03-14T10:07:50;8.63;;;1.13;;
69573;SDS011;62840;52.366;5.980;2023-03-14T10:10:29;6.97;;;1.00;;
69573;SDS011;62840;52.366;5.980;2023-03-14T10:13:14;5.68;;;0.80;;
69573;SDS011;62840;52.366;5.980;2023-03-14T10:15:51;7.07;;;1.15;;
69573;SDS011;62840;52.366;5.980;2023-03-14T10:18:58;6.10;;;0.83;;
69573;SDS011;62840;52.366;5.980;2023-03-14T10:21:56;6.15;;;0.85;;
69573;SDS011;62840;52.366;5.980;2023-03-14T10:25:01;9.90;;;1.10;;
69573;SDS011;62840;52.366;5.980;2023-03-14T10:31:12;4.40;;;0.80;;
69573;SDS011;62840;52.366;5.980;2023-03-14T10:34:12;7.97;;;1.00;;
69573;SDS011;62840;52.366;5.980;2023-03-14T10:37:16;9.45;;;1.08;;
69573;SDS011;62840;52.366;5.980;2023-03-14T10:39:58;9.95;;;1.27;;
69573;SDS011;62840;52.366;5.980;2023-03-14T10:43:12;9.05;;;0.90;;
69573;SDS011;62840;52.366;5.980;2023-03-14T10:45:50;10.23;;;1.13;;
69573;SDS011;62840;52.366;5.980;2023-03-14T10:51:25;8.07;;;1.05;;
69573;SDS011;62840;52.366;5.980;2023-03-14T10:54:02;8.23;;;1.45;;
69573;SDS011;62840;52.366;5.980;2023-03-14T10:57:06;9.45;;;1.08;;
69573;SDS011;62840;52.366;5.980;2023-03-14T10:59:50;6.53;;;1.42;;
69573;SDS011;62840;52.366;5.980;2023-03-14T11:02:44;8.43;;;1.20;;
69573;SDS011;62840;52.366;5.980;2023-03-14T11:05:45;9.25;;;1.30;;
69573;SDS011;62840;52.366;5.980;2023-03-14T11:08:30;8.32;;;1.45;;
69573;SDS011;62840;52.366;5.980;2023-03-14T11:11:23;8.27;;;1.35;;
69573;SDS011;62840;52.366;5.980;2023-03-14T11:14:20;8.30;;;1.30;;
69573;SDS011;62840;52.366;5.980;2023-03-14T11:17:17;9.57;;;0.90;;
69573;SDS011;62840;52.366;5.980;2023-03-14T11:20:08;6.60;;;1.00;;
69573;SDS011;62840;52.366;5.980;2023-03-14T11:23:22;10.32;;;1.67;;
69573;SDS011;62840;52.366;5.980;2023-03-14T11:26:19;7.93;;;1.10;;
69573;SDS011;62840;52.366;5.980;2023-03-14T11:29:02;7.57;;;1.00;;
69573;SDS011;62840;52.366;5.980;2023-03-14T11:32:09;8.97;;;1.27;;
69573;SDS011;62840;52.366;5.980;2023-03-14T11:35:07;7.75;;;1.08;;
69573;SDS011;62840;52.366;5.980;2023-03-14T11:38:03;10.20;;;1.23;;
69573;SDS011;62840;52.366;5.980;2023-03-14T11:41:39;7.47;;;1.23;;
69573;SDS011;62840;52.366;5.980;2023-03-14T11:44:37;7.13;;;1.38;;
69573;SDS011;62840;52.366;5.980;2023-03-14T11:47:34;6.80;;;1.30;;
69573;SDS011;62840;52.366;5.980;2023-03-14T11:50:16;9.68;;;1.75;;
69573;SDS011;62840;52.366;5.980;2023-03-14T11:52:55;5.75;;;1.00;;
69573;SDS011;62840;52.366;5.980;2023-03-14T11:55:49;5.57;;;1.00;;
69573;SDS011;62840;52.366;5.980;2023-03-14T11:58:23;6.63;;;0.90;;
69573;SDS011;62840;52.366;5.980;2023-03-14T12:04:34;6.03;;;1.10;;
69573;SDS011;62840;52.366;5.980;2023-03-14T12:07:20;5.80;;;1.00;;
69573;SDS011;62840;52.366;5.980;2023-03-14T12:10:05;6.55;;;1.02;;
69573;SDS011;62840;52.366;5.980;2023-03-14T12:12:51;9.25;;;1.55;;
69573;SDS011;62840;52.366;5.980;2023-03-14T12:22:02;6.15;;;1.25;;
69573;SDS011;62840;52.366;5.980;2023-03-14T12:24:59;7.65;;;1.20;;
69573;SDS011;62840;52.366;5.980;2023-03-14T12:28:13;6.38;;;1.10;;
69573;SDS011;62840;52.366;5.980;2023-03-14T12:37:22;8.82;;;1.33;;
69573;SDS011;62840;52.366;5.980;2023-03-14T12:40:37;4.07;;;0.98;;
69573;SDS011;62840;52.366;5.980;2023-03-14T12:43:31;5.13;;;0.90;;
69573;SDS011;62840;52.366;5.980;2023-03-14T12:46:16;4.60;;;0.70;;
69573;SDS011;62840;52.366;5.980;2023-03-14T12:49:03;4.57;;;0.70;;
69573;SDS011;62840;52.366;5.980;2023-03-14T12:51:42;4.13;;;0.80;;
69573;SDS011;62840;52.366;5.980;2023-03-14T12:54:34;2.63;;;0.50;;
69573;SDS011;62840;52.366;5.980;2023-03-14T12:57:27;4.82;;;0.65;;
69573;SDS011;62840;52.366;5.980;2023-03-14T13:00:02;5.77;;;0.73;;
69573;SDS011;62840;52.366;5.980;2023-03-14T13:02:50;3.55;;;0.75;;
69573;SDS011;62840;52.366;5.980;2023-03-14T13:05:35;5.18;;;1.08;;
69573;SDS011;62840;52.366;5.980;2023-03-14T13:08:40;4.53;;;0.73;;
69573;SDS011;62840;52.366;5.980;2023-03-14T13:11:45;7.22;;;0.82;;
69573;SDS011;62840;52.366;5.980;2023-03-14T13:14:40;4.60;;;0.70;;
69573;SDS011;62840;52.366;5.980;2023-03-14T13:17:26;6.18;;;0.77;;
69573;SDS011;62840;52.366;5.980;2023-03-14T13:20:09;3.53;;;0.80;;
69573;SDS011;62840;52.366;5.980;2023-03-14T13:23:19;3.58;;;0.80;;
69573;SDS011;62840;52.366;5.980;2023-03-14T13:26:12;4.47;;;0.75;;
69573;SDS011;62840;52.366;5.980;2023-03-14T13:28:56;4.40;;;0.73;;
69573;SDS011;62840;52.366;5.980;2023-03-14T13:31:52;8.35;;;1.40;;
69573;SDS011;62840;52.366;5.980;2023-03-14T13:34:28;5.22;;;0.77;;
69573;SDS011;62840;52.366;5.980;2023-03-14T13:37:13;4.25;;;0.65;;
69573;SDS011;62840;52.366;5.980;2023-03-14T13:40:30;4.15;;;0.77;;
69573;SDS011;62840;52.366;5.980;2023-03-14T13:43:17;3.77;;;0.67;;
69573;SDS011;62840;52.366;5.980;2023-03-14T13:46:12;4.80;;;0.63;;
69573;SDS011;62840;52.366;5.980;2023-03-14T13:48:53;5.07;;;0.88;;
69573;SDS011;62840;52.366;5.980;2023-03-14T13:51:33;4.47;;;0.90;;
69573;SDS011;62840;52.366;5.980;2023-03-14T13:54:21;6.22;;;0.75;;
69573;SDS011;62840;52.366;5.980;2023-03-14T13:57:01;3.17;;;0.60;;
69573;SDS011;62840;52.366;5.980;2023-03-14T13:59:51;2.67;;;0.57;;
69573;SDS011;62840;52.366;5.980;2023-03-14T14:03:00;3.95;;;0.90;;
69573;SDS011;62840;52.366;5.980;2023-03-14T14:05:48;5.90;;;0.90;;
69573;SDS011;62840;52.366;5.980;2023-03-14T14:08:47;5.82;;;0.90;;
69573;SDS011;62840;52.366;5.980;2023-03-14T14:11:54;5.43;;;0.80;;
69573;SDS011;62840;52.366;5.980;2023-03-14T14:14:43;6.68;;;0.80;;
69573;SDS011;62840;52.366;5.980;2023-03-14T14:17:31;3.67;;;0.90;;
69573;SDS011;62840;52.366;5.980;2023-03-14T14:20:16;5.90;;;0.70;;
69573;SDS011;62840;52.366;5.980;2023-03-14T14:23:13;4.78;;;0.95;;
69573;SDS011;62840;52.366;5.980;2023-03-14T14:25:57;5.20;;;1.00;;
69573;SDS011;62840;52.366;5.980;2023-03-14T14:28:44;4.32;;;0.93;;
69573;SDS011;62840;52.366;5.980;2023-03-14T14:31:58;3.65;;;0.70;;
69573;SDS011;62840;52.366;5.980;2023-03-14T14:34:55;3.97;;;0.55;;
69573;SDS011;62840;52.366;5.980;2023-03-14T14:37:51;4.78;;;0.80;;
69573;SDS011;62840;52.366;5.980;2023-03-14T14:40:24;2.87;;;0.83;;
69573;SDS011;62840;52.366;5.980;2023-03-14T14:43:02;4.90;;;0.70;;
69573;SDS011;62840;52.366;5.980;2023-03-14T14:45:41;3.80;;;1.00;;
69573;SDS011;62840;52.366;5.980;2023-03-14T14:48:26;5.90;;;1.10;;
69573;SDS011;62840;52.366;5.980;2023-03-14T14:51:08;6.65;;;1.10;;
69573;SDS011;62840;52.366;5.980;2023-03-14T14:54:51;4.47;;;0.70;;
69573;SDS011;62840;52.366;5.980;2023-03-14T14:57:24;7.22;;;0.90;;
69573;SDS011;62840;52.366;5.980;2023-03-14T15:00:39;5.72;;;0.88;;
69573;SDS011;62840;52.366;5.980;2023-03-14T15:03:24;5.07;;;0.95;;
69573;SDS011;62840;52.366;5.980;2023-03-14T15:06:19;5.50;;;0.85;;
69573;SDS011;62840;52.366;5.980;2023-03-14T15:09:00;3.63;;;0.90;;
69573;SDS011;62840;52.366;5.980;2023-03-14T15:11:53;5.10;;;0.60;;
69573;SDS011;62840;52.366;5.980;2023-03-14T15:14:45;5.93;;;1.10;;
69573;SDS011;62840;52.366;5.980;2023-03-14T15:17:47;5.90;;;0.88;;
69573;SDS011;62840;52.366;5.980;2023-03-14T15:20:39;8.38;;;1.00;;
69573;SDS011;62840;52.366;5.980;2023-03-14T15:23:34;2.90;;;0.53;;
69573;SDS011;62840;52.366;5.980;2023-03-14T15:26:27;6.05;;;0.70;;
69573;SDS011;62840;52.366;5.980;2023-03-14T15:29:32;5.28;;;0.82;;
69573;SDS011;62840;52.366;5.980;2023-03-14T15:32:04;3.05;;;0.60;;
69573;SDS011;62840;52.366;5.980;2023-03-14T15:34:48;4.22;;;0.73;;
69573;SDS011;62840;52.366;5.980;2023-03-14T15:40:21;4.22;;;0.50;;
69573;SDS011;62840;52.366;5.980;2023-03-14T15:43:15;3.92;;;0.60;;
69573;SDS011;62840;52.366;5.980;2023-03-14T15:46:09;4.10;;;0.68;;
69573;SDS011;62840;52.366;5.980;2023-03-14T15:49:04;4.43;;;0.63;;
69573;SDS011;62840;52.366;5.980;2023-03-14T15:51:41;6.40;;;0.60;;
69573;SDS011;62840;52.366;5.980;2023-03-14T15:54:30;4.22;;;0.70;;
69573;SDS011;62840;52.366;5.980;2023-03-14T15:57:33;4.65;;;0.75;;
69573;SDS011;62840;52.366;5.980;2023-03-14T16:00:24;6.55;;;0.70;;
69573;SDS011;62840;52.366;5.980;2023-03-14T16:03:25;3.55;;;0.73;;
69573;SDS011;62840;52.366;5.980;2023-03-14T16:06:11;5.63;;;0.60;;
69573;SDS011;62840;52.366;5.980;2023-03-14T16:09:15;4.00;;;0.60;;
69573;SDS011;62840;52.366;5.980;2023-03-14T16:11:58;7.30;;;1.17;;
69573;SDS011;62840;52.366;5.980;2023-03-14T16:14:33;5.38;;;0.73;;
69573;SDS011;62840;52.366;5.980;2023-03-14T16:20:12;7.27;;;0.83;;
69573;SDS011;62840;52.366;5.980;2023-03-14T16:23:30;3.63;;;0.77;;
69573;SDS011;62840;52.366;5.980;2023-03-14T16:29:17;4.20;;;0.70;;
69573;SDS011;62840;52.366;5.980;2023-03-14T16:32:03;6.28;;;0.90;;
69573;SDS011;62840;52.366;5.980;2023-03-14T16:34:42;4.30;;;0.57;;
69573;SDS011;62840;52.366;5.980;2023-03-14T16:37:10;3.47;;;0.88;;
69573;SDS011;62840;52.366;5.980;2023-03-14T16:39:37;3.90;;;1.00;;
69573;SDS011;62840;52.366;5.980;2023-03-14T16:42:11;5.50;;;1.20;;
69573;SDS011;62840;52.366;5.980;2023-03-14T16:44:50;4.60;;;0.90;;
69573;SDS011;62840;52.366;5.980;2023-03-14T16:47:16;5.73;;;0.90;;
69573;SDS011;62840;52.366;5.980;2023-03-14T16:49:54;5.55;;;0.80;;
69573;SDS011;62840;52.366;5.980;2023-03-14T16:52:33;3.70;;;0.75;;
69573;SDS011;62840;52.366;5.980;2023-03-14T16:55:05;4.20;;;0.80;;
69573;SDS011;62840;52.366;5.980;2023-03-14T16:57:45;6.57;;;0.73;;
69573;SDS011;62840;52.366;5.980;2023-03-14T17:00:22;4.23;;;0.70;;
69573;SDS011;62840;52.366;5.980;2023-03-14T17:02:52;5.75;;;0.60;;
69573;SDS011;62840;52.366;5.980;2023-03-14T17:05:53;5.32;;;1.10;;
69573;SDS011;62840;52.366;5.980;2023-03-14T17:08:56;5.15;;;0.80;;
69573;SDS011;62840;52.366;5.980;2023-03-14T17:11:47;5.15;;;0.70;;
69573;SDS011;62840;52.366;5.980;2023-03-14T17:17:15;4.53;;;0.80;;
69573;SDS011;62840;52.366;5.980;2023-03-14T17:20:00;6.07;;;0.80;;
69573;SDS011;62840;52.366;5.980;2023-03-14T17:22:37;4.43;;;0.50;;
69573;SDS011;62840;52.366;5.980;2023-03-14T17:25:11;6.68;;;0.80;;
69573;SDS011;62840;52.366;5.980;2023-03-14T17:27:59;5.13;;;0.73;;
69573;SDS011;62840;52.366;5.980;2023-03-14T17:33:28;3.97;;;0.82;;
69573;SDS011;62840;52.366;5.980;2023-03-14T17:36:05;6.00;;;0.90;;
69573;SDS011;62840;52.366;5.980;2023-03-14T17:38:39;6.93;;;1.08;;
69573;SDS011;62840;52.366;5.980;2023-03-14T17:41:37;4.53;;;0.70;;
69573;SDS011;62840;52.366;5.980;2023-03-14T17:44:18;3.88;;;0.73;;
69573;SDS011;62840;52.366;5.980;2023-03-14T17:47:29;3.45;;;0.82;;
69573;SDS011;62840;52.366;5.980;2023-03-14T17:52:55;4.78;;;1.10;;
69573;SDS011;62840;52.366;5.980;2023-03-14T17:55:46;5.50;;;0.67;;
69573;SDS011;62840;52.366;5.980;2023-03-14T17:58:30;4.85;;;1.08;;
69573;SDS011;62840;52.366;5.980;2023-03-14T18:01:17;5.60;;;0.93;;